sensor_id;sensor_type;location;lat;lon;timestamp;P1;durP1;ratioP1;P2;durP2;ratioP2
23390;SDS011;11868;45.606;5.302;2023-02-01T00:01:36;8.13;;;4.55;;
23390;SDS011;11868;45.606;5.302;2023-02-01T00:04:01;6.47;;;4.40;;
23390;SDS011;11868;45.606;5.302;2023-02-01T00:06:27;6.85;;;4.43;;
23390;SDS011;11868;45.606;5.302;2023-02-01T00:08:52;11.68;;;5.88;;
23390;SDS011;11868;45.606;5.302;2023-02-01T00:11:19;9.43;;;5.88;;
23390;SDS011;11868;45.606;5.302;2023-02-01T00:13:44;12.35;;;6.07;;
23390;SDS011;11868;45.606;5.302;2023-02-01T00:16:11;13.13;;;7.25;;
23390;SDS011;11868;45.606;5.302;2023-02-01T00:18:44;11.25;;;6.57;;
23390;SDS011;11868;45.606;5.302;2023-02-01T00:21:11;11.40;;;6.93;;
23390;SDS011;11868;45.606;5.302;2023-02-01T00:23:37;12.13;;;6.88;;
23390;SDS011;11868;45.606;5.302;2023-02-01T00:26:05;16.02;;;6.47;;
23390;SDS011;11868;45.606;5.302;2023-02-01T00:28:32;15.63;;;6.38;;
23390;SDS011;11868;45.606;5.302;2023-02-01T00:30:58;10.32;;;5.90;;
23390;SDS011;11868;45.606;5.302;2023-02-01T00:33:23;11.95;;;6.13;;
23390;SDS011;11868;45.606;5.302;2023-02-01T00:35:49;10.57;;;5.57;;
23390;SDS011;11868;45.606;5.302;2023-02-01T00:38:14;9.13;;;5.38;;
23390;SDS011;11868;45.606;5.302;2023-02-01T00:40:39;9.75;;;5.57;;
23390;SDS011;11868;45.606;5.302;2023-02-01T00:43:05;9.10;;;5.82;;
23390;SDS011;11868;45.606;5.302;2023-02-01T00:45:30;8.27;;;5.30;;
23390;SDS011;11868;45.606;5.302;2023-02-01T00:47:55;11.30;;;5.57;;
23390;SDS011;11868;45.606;5.302;2023-02-01T00:50:21;11.38;;;6.22;;
23390;SDS011;11868;45.606;5.302;2023-02-01T00:52:46;9.93;;;5.53;;
23390;SDS011;11868;45.606;5.302;2023-02-01T00:55:12;7.68;;;4.68;;
23390;SDS011;11868;45.606;5.302;2023-02-01T00:57:37;11.23;;;5.68;;
23390;SDS011;11868;45.606;5.302;2023-02-01T01:00:02;7.70;;;5.20;;
23390;SDS011;11868;45.606;5.302;2023-02-01T01:02:28;9.38;;;5.20;;
23390;SDS011;11868;45.606;5.302;2023-02-01T01:04:54;9.93;;;5.00;;
23390;SDS011;11868;45.606;5.302;2023-02-01T01:07:19;8.90;;;5.65;;
23390;SDS011;11868;45.606;5.302;2023-02-01T01:09:44;7.80;;;5.32;;
23390;SDS011;11868;45.606;5.302;2023-02-01T01:12:10;8.52;;;5.95;;
23390;SDS011;11868;45.606;5.302;2023-02-01T01:14:35;8.10;;;5.72;;
23390;SDS011;11868;45.606;5.302;2023-02-01T01:17:00;12.13;;;6.60;;
23390;SDS011;11868;45.606;5.302;2023-02-01T01:19:26;14.45;;;8.65;;
23390;SDS011;11868;45.606;5.302;2023-02-01T01:21:51;14.30;;;8.77;;
23390;SDS011;11868;45.606;5.302;2023-02-01T01:24:16;16.67;;;9.45;;
23390;SDS011;11868;45.606;5.302;2023-02-01T01:26:42;15.93;;;9.27;;
23390;SDS011;11868;45.606;5.302;2023-02-01T01:29:08;18.48;;;9.18;;
23390;SDS011;11868;45.606;5.302;2023-02-01T01:31:34;16.63;;;9.15;;
23390;SDS011;11868;45.606;5.302;2023-02-01T01:33:59;14.80;;;9.10;;
23390;SDS011;11868;45.606;5.302;2023-02-01T01:36:26;14.73;;;9.45;;
23390;SDS011;11868;45.606;5.302;2023-02-01T01:38:52;11.55;;;8.30;;
23390;SDS011;11868;45.606;5.302;2023-02-01T01:41:19;13.45;;;9.20;;
23390;SDS011;11868;45.606;5.302;2023-02-01T01:43:51;14.07;;;9.02;;
23390;SDS011;11868;45.606;5.302;2023-02-01T01:48:55;12.25;;;8.85;;
23390;SDS011;11868;45.606;5.302;2023-02-01T01:51:25;12.57;;;8.55;;
23390;SDS011;11868;45.606;5.302;2023-02-01T01:54:01;13.90;;;8.77;;
23390;SDS011;11868;45.606;5.302;2023-02-01T01:56:28;12.48;;;8.18;;
23390;SDS011;11868;45.606;5.302;2023-02-01T01:58:54;14.63;;;8.45;;
23390;SDS011;11868;45.606;5.302;2023-02-01T02:01:20;17.02;;;9.55;;
23390;SDS011;11868;45.606;5.302;2023-02-01T02:03:46;16.20;;;9.02;;
23390;SDS011;11868;45.606;5.302;2023-02-01T02:06:56;19.40;;;9.73;;
23390;SDS011;11868;45.606;5.302;2023-02-01T02:09:04;17.63;;;9.80;;
23390;SDS011;11868;45.606;5.302;2023-02-01T02:11:29;27.50;;;11.95;;
23390;SDS011;11868;45.606;5.302;2023-02-01T02:13:55;29.20;;;13.45;;
23390;SDS011;11868;45.606;5.302;2023-02-01T02:16:37;27.40;;;12.48;;
23390;SDS011;11868;45.606;5.302;2023-02-01T02:27:48;23.85;;;11.52;;
23390;SDS011;11868;45.606;5.302;2023-02-01T02:30:36;18.80;;;10.55;;
23390;SDS011;11868;45.606;5.302;2023-02-01T02:41:02;18.45;;;10.68;;
23390;SDS011;11868;45.606;5.302;2023-02-01T02:44:13;16.48;;;9.20;;
23390;SDS011;11868;45.606;5.302;2023-02-01T02:47:03;16.52;;;9.82;;
23390;SDS011;11868;45.606;5.302;2023-02-01T02:49:56;16.65;;;9.75;;
23390;SDS011;11868;45.606;5.302;2023-02-01T02:52:51;20.98;;;10.45;;
23390;SDS011;11868;45.606;5.302;2023-02-01T02:55:39;19.45;;;10.95;;
23390;SDS011;11868;45.606;5.302;2023-02-01T02:58:05;18.95;;;11.10;;
23390;SDS011;11868;45.606;5.302;2023-02-01T03:00:50;17.35;;;10.68;;
23390;SDS011;11868;45.606;5.302;2023-02-01T03:03:36;21.38;;;10.80;;
23390;SDS011;11868;45.606;5.302;2023-02-01T03:06:22;18.83;;;9.82;;
23390;SDS011;11868;45.606;5.302;2023-02-01T03:08:48;15.07;;;10.10;;
23390;SDS011;11868;45.606;5.302;2023-02-01T03:11:13;15.98;;;10.05;;
23390;SDS011;11868;45.606;5.302;2023-02-01T03:16:20;15.95;;;9.38;;
23390;SDS011;11868;45.606;5.302;2023-02-01T03:22:16;15.07;;;8.88;;
23390;SDS011;11868;45.606;5.302;2023-02-01T03:24:46;16.75;;;9.60;;
23390;SDS011;11868;45.606;5.302;2023-02-01T03:27:16;12.75;;;9.30;;
23390;SDS011;11868;45.606;5.302;2023-02-01T03:29:59;15.60;;;9.68;;
23390;SDS011;11868;45.606;5.302;2023-02-01T03:32:26;14.85;;;9.68;;
23390;SDS011;11868;45.606;5.302;2023-02-01T03:34:51;13.77;;;8.85;;
23390;SDS011;11868;45.606;5.302;2023-02-01T03:37:25;15.13;;;9.48;;
23390;SDS011;11868;45.606;5.302;2023-02-01T03:42:29;14.80;;;9.02;;
23390;SDS011;11868;45.606;5.302;2023-02-01T03:45:04;14.50;;;9.60;;
23390;SDS011;11868;45.606;5.302;2023-02-01T03:47:33;15.70;;;9.63;;
23390;SDS011;11868;45.606;5.302;2023-02-01T03:50:08;16.58;;;10.10;;
23390;SDS011;11868;45.606;5.302;2023-02-01T03:52:40;16.17;;;10.77;;
23390;SDS011;11868;45.606;5.302;2023-02-01T03:55:08;17.67;;;10.07;;
23390;SDS011;11868;45.606;5.302;2023-02-01T03:57:35;15.02;;;9.65;;
23390;SDS011;11868;45.606;5.302;2023-02-01T04:00:07;14.60;;;9.07;;
23390;SDS011;11868;45.606;5.302;2023-02-01T04:02:35;15.57;;;10.00;;
23390;SDS011;11868;45.606;5.302;2023-02-01T04:05:00;13.63;;;9.65;;
23390;SDS011;11868;45.606;5.302;2023-02-01T04:07:25;14.27;;;10.35;;
23390;SDS011;11868;45.606;5.302;2023-02-01T04:09:51;14.90;;;9.52;;
23390;SDS011;11868;45.606;5.302;2023-02-01T04:12:16;15.55;;;9.77;;
23390;SDS011;11868;45.606;5.302;2023-02-01T04:14:42;15.55;;;10.02;;
23390;SDS011;11868;45.606;5.302;2023-02-01T04:17:07;16.30;;;10.18;;
23390;SDS011;11868;45.606;5.302;2023-02-01T04:19:32;15.57;;;10.00;;
23390;SDS011;11868;45.606;5.302;2023-02-01T04:21:58;14.05;;;9.90;;
23390;SDS011;11868;45.606;5.302;2023-02-01T04:24:23;14.85;;;9.98;;
23390;SDS011;11868;45.606;5.302;2023-02-01T04:26:48;15.30;;;9.80;;
23390;SDS011;11868;45.606;5.302;2023-02-01T04:29:14;17.48;;;10.52;;
23390;SDS011;11868;45.606;5.302;2023-02-01T04:31:39;18.23;;;9.80;;
23390;SDS011;11868;45.606;5.302;2023-02-01T04:34:05;15.75;;;10.43;;
23390;SDS011;11868;45.606;5.302;2023-02-01T04:36:30;18.27;;;10.80;;
23390;SDS011;11868;45.606;5.302;2023-02-01T04:38:55;15.63;;;10.68;;
23390;SDS011;11868;45.606;5.302;2023-02-01T04:41:21;15.15;;;10.35;;
23390;SDS011;11868;45.606;5.302;2023-02-01T04:43:48;20.05;;;10.90;;
23390;SDS011;11868;45.606;5.302;2023-02-01T04:46:14;16.42;;;9.93;;
23390;SDS011;11868;45.606;5.302;2023-02-01T04:48:39;15.27;;;10.35;;
23390;SDS011;11868;45.606;5.302;2023-02-01T04:51:05;18.00;;;10.65;;
23390;SDS011;11868;45.606;5.302;2023-02-01T04:53:30;17.20;;;10.40;;
23390;SDS011;11868;45.606;5.302;2023-02-01T04:55:56;17.33;;;10.85;;
23390;SDS011;11868;45.606;5.302;2023-02-01T04:58:21;17.35;;;11.23;;
23390;SDS011;11868;45.606;5.302;2023-02-01T05:00:46;16.27;;;11.05;;
23390;SDS011;11868;45.606;5.302;2023-02-01T05:03:12;16.75;;;11.45;;
23390;SDS011;11868;45.606;5.302;2023-02-01T05:05:37;16.65;;;10.75;;
23390;SDS011;11868;45.606;5.302;2023-02-01T05:08:03;18.48;;;11.52;;
23390;SDS011;11868;45.606;5.302;2023-02-01T05:10:28;18.80;;;10.35;;
23390;SDS011;11868;45.606;5.302;2023-02-01T05:12:54;15.68;;;10.73;;
23390;SDS011;11868;45.606;5.302;2023-02-01T05:15:38;18.05;;;11.57;;
23390;SDS011;11868;45.606;5.302;2023-02-01T05:18:03;17.15;;;11.15;;
23390;SDS011;11868;45.606;5.302;2023-02-01T05:20:28;16.17;;;10.45;;
23390;SDS011;11868;45.606;5.302;2023-02-01T05:22:54;16.83;;;10.73;;
23390;SDS011;11868;45.606;5.302;2023-02-01T05:25:19;16.98;;;10.65;;
23390;SDS011;11868;45.606;5.302;2023-02-01T05:27:44;15.85;;;10.25;;
23390;SDS011;11868;45.606;5.302;2023-02-01T05:30:10;15.93;;;10.98;;
23390;SDS011;11868;45.606;5.302;2023-02-01T05:32:36;15.00;;;10.48;;
23390;SDS011;11868;45.606;5.302;2023-02-01T05:35:01;14.63;;;10.07;;
23390;SDS011;11868;45.606;5.302;2023-02-01T05:37:27;17.02;;;11.23;;
23390;SDS011;11868;45.606;5.302;2023-02-01T05:39:52;18.55;;;10.93;;
23390;SDS011;11868;45.606;5.302;2023-02-01T05:42:18;17.50;;;11.07;;
23390;SDS011;11868;45.606;5.302;2023-02-01T05:44:43;16.50;;;11.52;;
23390;SDS011;11868;45.606;5.302;2023-02-01T05:47:09;19.17;;;12.63;;
23390;SDS011;11868;45.606;5.302;2023-02-01T05:49:34;19.35;;;12.00;;
23390;SDS011;11868;45.606;5.302;2023-02-01T05:51:59;21.92;;;13.35;;
23390;SDS011;11868;45.606;5.302;2023-02-01T05:54:25;20.35;;;13.68;;
23390;SDS011;11868;45.606;5.302;2023-02-01T05:56:50;21.25;;;13.82;;
23390;SDS011;11868;45.606;5.302;2023-02-01T05:59:16;18.83;;;13.23;;
23390;SDS011;11868;45.606;5.302;2023-02-01T06:01:41;21.90;;;13.45;;
23390;SDS011;11868;45.606;5.302;2023-02-01T06:04:07;17.60;;;11.63;;
23390;SDS011;11868;45.606;5.302;2023-02-01T06:06:32;16.77;;;11.88;;
23390;SDS011;11868;45.606;5.302;2023-02-01T06:08:58;16.02;;;12.00;;
23390;SDS011;11868;45.606;5.302;2023-02-01T06:11:23;16.48;;;11.13;;
23390;SDS011;11868;45.606;5.302;2023-02-01T06:13:49;18.27;;;10.43;;
23390;SDS011;11868;45.606;5.302;2023-02-01T06:16:14;18.08;;;11.70;;
23390;SDS011;11868;45.606;5.302;2023-02-01T06:18:40;15.38;;;11.63;;
23390;SDS011;11868;45.606;5.302;2023-02-01T06:21:06;18.08;;;11.40;;
23390;SDS011;11868;45.606;5.302;2023-02-01T06:23:32;16.08;;;11.55;;
23390;SDS011;11868;45.606;5.302;2023-02-01T06:25:58;17.73;;;11.85;;
23390;SDS011;11868;45.606;5.302;2023-02-01T06:28:25;16.35;;;11.55;;
23390;SDS011;11868;45.606;5.302;2023-02-01T06:30:50;18.15;;;11.68;;
23390;SDS011;11868;45.606;5.302;2023-02-01T06:33:16;19.90;;;12.35;;
23390;SDS011;11868;45.606;5.302;2023-02-01T06:35:41;24.58;;;15.35;;
23390;SDS011;11868;45.606;5.302;2023-02-01T06:38:09;24.15;;;10.80;;
23390;SDS011;11868;45.606;5.302;2023-02-01T06:40:37;21.20;;;13.65;;
23390;SDS011;11868;45.606;5.302;2023-02-01T06:43:03;16.65;;;11.82;;
23390;SDS011;11868;45.606;5.302;2023-02-01T06:45:28;18.17;;;10.80;;
23390;SDS011;11868;45.606;5.302;2023-02-01T06:47:54;15.38;;;11.27;;
23390;SDS011;11868;45.606;5.302;2023-02-01T06:50:19;17.17;;;11.95;;
23390;SDS011;11868;45.606;5.302;2023-02-01T06:52:45;17.58;;;11.93;;
23390;SDS011;11868;45.606;5.302;2023-02-01T06:55:11;14.25;;;10.15;;
23390;SDS011;11868;45.606;5.302;2023-02-01T06:57:36;18.90;;;11.10;;
23390;SDS011;11868;45.606;5.302;2023-02-01T07:00:02;16.65;;;11.88;;
23390;SDS011;11868;45.606;5.302;2023-02-01T07:02:28;14.82;;;10.98;;
23390;SDS011;11868;45.606;5.302;2023-02-01T07:04:54;14.23;;;10.02;;
23390;SDS011;11868;45.606;5.302;2023-02-01T07:07:19;19.00;;;10.50;;
23390;SDS011;11868;45.606;5.302;2023-02-01T07:09:47;16.23;;;10.00;;
23390;SDS011;11868;45.606;5.302;2023-02-01T07:12:15;16.77;;;10.02;;
23390;SDS011;11868;45.606;5.302;2023-02-01T07:14:41;17.13;;;10.82;;
23390;SDS011;11868;45.606;5.302;2023-02-01T07:17:06;18.13;;;10.70;;
23390;SDS011;11868;45.606;5.302;2023-02-01T07:19:32;15.60;;;10.30;;
23390;SDS011;11868;45.606;5.302;2023-02-01T07:21:57;18.65;;;11.57;;
23390;SDS011;11868;45.606;5.302;2023-02-01T07:24:22;16.95;;;10.93;;
23390;SDS011;11868;45.606;5.302;2023-02-01T07:26:48;16.50;;;11.05;;
23390;SDS011;11868;45.606;5.302;2023-02-01T07:29:15;17.92;;;11.43;;
23390;SDS011;11868;45.606;5.302;2023-02-01T07:31:41;20.85;;;12.98;;
23390;SDS011;11868;45.606;5.302;2023-02-01T07:34:07;20.85;;;12.07;;
23390;SDS011;11868;45.606;5.302;2023-02-01T07:36:32;18.17;;;12.23;;
23390;SDS011;11868;45.606;5.302;2023-02-01T07:38:59;15.32;;;11.40;;
23390;SDS011;11868;45.606;5.302;2023-02-01T07:41:24;23.40;;;12.27;;
23390;SDS011;11868;45.606;5.302;2023-02-01T07:43:52;23.00;;;12.23;;
23390;SDS011;11868;45.606;5.302;2023-02-01T07:46:18;20.88;;;12.63;;
23390;SDS011;11868;45.606;5.302;2023-02-01T07:48:43;18.45;;;12.07;;
23390;SDS011;11868;45.606;5.302;2023-02-01T07:51:09;19.75;;;11.45;;
23390;SDS011;11868;45.606;5.302;2023-02-01T07:53:37;17.65;;;11.77;;
23390;SDS011;11868;45.606;5.302;2023-02-01T07:56:08;18.73;;;11.57;;
23390;SDS011;11868;45.606;5.302;2023-02-01T07:58:38;17.35;;;11.27;;
23390;SDS011;11868;45.606;5.302;2023-02-01T08:01:03;23.67;;;12.30;;
23390;SDS011;11868;45.606;5.302;2023-02-01T08:03:53;16.95;;;12.15;;
23390;SDS011;11868;45.606;5.302;2023-02-01T08:06:22;16.83;;;11.95;;
23390;SDS011;11868;45.606;5.302;2023-02-01T08:08:48;17.55;;;11.30;;
23390;SDS011;11868;45.606;5.302;2023-02-01T08:11:15;19.02;;;11.65;;
23390;SDS011;11868;45.606;5.302;2023-02-01T08:13:40;25.45;;;13.30;;
23390;SDS011;11868;45.606;5.302;2023-02-01T08:16:07;19.80;;;12.43;;
23390;SDS011;11868;45.606;5.302;2023-02-01T08:18:34;21.63;;;13.68;;
23390;SDS011;11868;45.606;5.302;2023-02-01T08:21:19;20.52;;;14.00;;
23390;SDS011;11868;45.606;5.302;2023-02-01T08:23:47;21.92;;;14.35;;
23390;SDS011;11868;45.606;5.302;2023-02-01T08:26:20;24.75;;;14.73;;
23390;SDS011;11868;45.606;5.302;2023-02-01T08:28:54;26.65;;;12.50;;
23390;SDS011;11868;45.606;5.302;2023-02-01T08:31:21;20.67;;;12.60;;
23390;SDS011;11868;45.606;5.302;2023-02-01T08:33:48;14.65;;;11.23;;
23390;SDS011;11868;45.606;5.302;2023-02-01T08:36:15;14.98;;;9.98;;
23390;SDS011;11868;45.606;5.302;2023-02-01T08:38:41;18.77;;;10.65;;
23390;SDS011;11868;45.606;5.302;2023-02-01T08:41:07;16.55;;;9.65;;
23390;SDS011;11868;45.606;5.302;2023-02-01T08:43:34;17.55;;;9.77;;
23390;SDS011;11868;45.606;5.302;2023-02-01T08:45:59;10.43;;;6.32;;
23390;SDS011;11868;45.606;5.302;2023-02-01T08:48:24;13.10;;;6.90;;
23390;SDS011;11868;45.606;5.302;2023-02-01T08:50:50;10.95;;;6.10;;
23390;SDS011;11868;45.606;5.302;2023-02-01T08:53:15;12.25;;;5.97;;
23390;SDS011;11868;45.606;5.302;2023-02-01T08:55:40;11.48;;;7.30;;
23390;SDS011;11868;45.606;5.302;2023-02-01T08:58:06;20.60;;;14.15;;
23390;SDS011;11868;45.606;5.302;2023-02-01T09:00:31;21.90;;;15.73;;
23390;SDS011;11868;45.606;5.302;2023-02-01T09:02:57;19.73;;;15.18;;
23390;SDS011;11868;45.606;5.302;2023-02-01T09:05:22;20.30;;;14.18;;
23390;SDS011;11868;45.606;5.302;2023-02-01T09:07:51;21.55;;;14.48;;
23390;SDS011;11868;45.606;5.302;2023-02-01T09:10:17;26.92;;;15.40;;
23390;SDS011;11868;45.606;5.302;2023-02-01T09:12:42;23.45;;;14.70;;
23390;SDS011;11868;45.606;5.302;2023-02-01T09:15:08;29.45;;;15.48;;
23390;SDS011;11868;45.606;5.302;2023-02-01T09:17:34;15.13;;;11.43;;
23390;SDS011;11868;45.606;5.302;2023-02-01T09:19:59;12.38;;;6.85;;
23390;SDS011;11868;45.606;5.302;2023-02-01T09:22:25;8.15;;;6.25;;
23390;SDS011;11868;45.606;5.302;2023-02-01T09:24:51;10.35;;;6.53;;
23390;SDS011;11868;45.606;5.302;2023-02-01T09:27:17;10.05;;;6.80;;
23390;SDS011;11868;45.606;5.302;2023-02-01T09:29:42;9.77;;;6.25;;
23390;SDS011;11868;45.606;5.302;2023-02-01T09:32:08;9.65;;;6.18;;
23390;SDS011;11868;45.606;5.302;2023-02-01T09:34:34;12.65;;;6.15;;
23390;SDS011;11868;45.606;5.302;2023-02-01T09:37:00;15.52;;;7.70;;
23390;SDS011;11868;45.606;5.302;2023-02-01T09:39:25;11.68;;;8.35;;
23390;SDS011;11868;45.606;5.302;2023-02-01T09:47:28;15.98;;;7.93;;
23390;SDS011;11868;45.606;5.302;2023-02-01T09:50:02;16.35;;;9.00;;
23390;SDS011;11868;45.606;5.302;2023-02-01T09:52:38;13.80;;;7.95;;
23390;SDS011;11868;45.606;5.302;2023-02-01T09:55:10;14.82;;;8.60;;
23390;SDS011;11868;45.606;5.302;2023-02-01T09:57:41;10.27;;;7.43;;
23390;SDS011;11868;45.606;5.302;2023-02-01T10:00:19;13.82;;;7.70;;
23390;SDS011;11868;45.606;5.302;2023-02-01T10:02:48;20.30;;;8.88;;
23390;SDS011;11868;45.606;5.302;2023-02-01T10:05:16;14.25;;;7.43;;
23390;SDS011;11868;45.606;5.302;2023-02-01T10:07:47;15.80;;;8.13;;
23390;SDS011;11868;45.606;5.302;2023-02-01T10:10:40;23.55;;;11.75;;
23390;SDS011;11868;45.606;5.302;2023-02-01T10:18:37;15.50;;;10.25;;
23390;SDS011;11868;45.606;5.302;2023-02-01T10:21:22;16.23;;;10.07;;
23390;SDS011;11868;45.606;5.302;2023-02-01T10:24:02;16.60;;;10.10;;
23390;SDS011;11868;45.606;5.302;2023-02-01T10:26:38;14.20;;;9.18;;
23390;SDS011;11868;45.606;5.302;2023-02-01T10:29:10;18.17;;;9.60;;
23390;SDS011;11868;45.606;5.302;2023-02-01T10:31:44;21.65;;;12.23;;
23390;SDS011;11868;45.606;5.302;2023-02-01T10:34:24;22.83;;;15.57;;
23390;SDS011;11868;45.606;5.302;2023-02-01T10:37:16;20.58;;;11.15;;
23390;SDS011;11868;45.606;5.302;2023-02-01T10:42:51;16.77;;;9.77;;
23390;SDS011;11868;45.606;5.302;2023-02-01T10:45:20;16.48;;;9.40;;
23390;SDS011;11868;45.606;5.302;2023-02-01T10:47:51;16.05;;;9.73;;
23390;SDS011;11868;45.606;5.302;2023-02-01T10:52:57;17.63;;;9.60;;
23390;SDS011;11868;45.606;5.302;2023-02-01T10:57:58;19.23;;;8.68;;
23390;SDS011;11868;45.606;5.302;2023-02-01T11:00:25;13.38;;;8.98;;
23390;SDS011;11868;45.606;5.302;2023-02-01T11:02:51;18.98;;;8.52;;
23390;SDS011;11868;45.606;5.302;2023-02-01T11:05:17;11.77;;;7.30;;
23390;SDS011;11868;45.606;5.302;2023-02-01T11:07:48;12.35;;;6.97;;
23390;SDS011;11868;45.606;5.302;2023-02-01T11:13:01;19.38;;;6.70;;
23390;SDS011;11868;45.606;5.302;2023-02-01T11:15:27;10.18;;;5.18;;
23390;SDS011;11868;45.606;5.302;2023-02-01T11:17:53;14.80;;;5.65;;
23390;SDS011;11868;45.606;5.302;2023-02-01T11:20:39;12.63;;;5.95;;
23390;SDS011;11868;45.606;5.302;2023-02-01T11:23:11;15.15;;;5.80;;
23390;SDS011;11868;45.606;5.302;2023-02-01T11:25:39;10.88;;;5.35;;
23390;SDS011;11868;45.606;5.302;2023-02-01T11:28:13;11.02;;;5.25;;
23390;SDS011;11868;45.606;5.302;2023-02-01T11:30:40;11.45;;;5.47;;
23390;SDS011;11868;45.606;5.302;2023-02-01T11:33:10;12.50;;;5.65;;
23390;SDS011;11868;45.606;5.302;2023-02-01T11:35:38;9.20;;;4.97;;
23390;SDS011;11868;45.606;5.302;2023-02-01T11:38:11;13.57;;;6.03;;
23390;SDS011;11868;45.606;5.302;2023-02-01T11:40:47;11.15;;;5.57;;
23390;SDS011;11868;45.606;5.302;2023-02-01T11:48:25;11.32;;;6.53;;
23390;SDS011;11868;45.606;5.302;2023-02-01T12:11:37;11.65;;;6.05;;
23390;SDS011;11868;45.606;5.302;2023-02-01T12:22:11;12.23;;;5.65;;
23390;SDS011;11868;45.606;5.302;2023-02-01T12:36:02;9.77;;;4.88;;
23390;SDS011;11868;45.606;5.302;2023-02-01T12:41:36;10.23;;;5.10;;
23390;SDS011;11868;45.606;5.302;2023-02-01T12:44:43;8.48;;;5.07;;
23390;SDS011;11868;45.606;5.302;2023-02-01T12:51:02;10.98;;;6.38;;
23390;SDS011;11868;45.606;5.302;2023-02-01T12:56:59;9.32;;;4.55;;
23390;SDS011;11868;45.606;5.302;2023-02-01T13:02:35;11.77;;;4.05;;
23390;SDS011;11868;45.606;5.302;2023-02-01T13:05:19;7.10;;;3.60;;
23390;SDS011;11868;45.606;5.302;2023-02-01T13:07:53;7.72;;;3.83;;
23390;SDS011;11868;45.606;5.302;2023-02-01T13:10:34;8.25;;;3.70;;
23390;SDS011;11868;45.606;5.302;2023-02-01T13:13:13;7.57;;;3.10;;
23390;SDS011;11868;45.606;5.302;2023-02-01T13:15:45;8.75;;;3.33;;
23390;SDS011;11868;45.606;5.302;2023-02-01T13:18:19;8.25;;;3.55;;
23390;SDS011;11868;45.606;5.302;2023-02-01T13:20:57;4.93;;;3.13;;
23390;SDS011;11868;45.606;5.302;2023-02-01T13:23:46;7.43;;;3.28;;
23390;SDS011;11868;45.606;5.302;2023-02-01T13:26:12;7.57;;;3.40;;
23390;SDS011;11868;45.606;5.302;2023-02-01T13:28:44;7.05;;;3.75;;
23390;SDS011;11868;45.606;5.302;2023-02-01T13:31:25;8.02;;;3.70;;
23390;SDS011;11868;45.606;5.302;2023-02-01T13:44:40;9.98;;;3.33;;
23390;SDS011;11868;45.606;5.302;2023-02-01T13:47:38;9.82;;;3.80;;
23390;SDS011;11868;45.606;5.302;2023-02-01T13:50:13;9.00;;;3.95;;
23390;SDS011;11868;45.606;5.302;2023-02-01T13:52:56;8.20;;;3.65;;
23390;SDS011;11868;45.606;5.302;2023-02-01T13:55:24;9.38;;;3.63;;
23390;SDS011;11868;45.606;5.302;2023-02-01T13:57:59;7.85;;;3.85;;
23390;SDS011;11868;45.606;5.302;2023-02-01T14:00:36;11.55;;;3.85;;
23390;SDS011;11868;45.606;5.302;2023-02-01T14:03:11;13.68;;;4.63;;
23390;SDS011;11868;45.606;5.302;2023-02-01T14:08:11;7.95;;;3.72;;
23390;SDS011;11868;45.606;5.302;2023-02-01T14:13:34;8.68;;;3.30;;
23390;SDS011;11868;45.606;5.302;2023-02-01T14:23:58;5.75;;;3.28;;
23390;SDS011;11868;45.606;5.302;2023-02-01T14:26:44;7.63;;;3.65;;
23390;SDS011;11868;45.606;5.302;2023-02-01T14:47:42;9.85;;;4.18;;
23390;SDS011;11868;45.606;5.302;2023-02-01T14:50:29;8.73;;;3.80;;
23390;SDS011;11868;45.606;5.302;2023-02-01T14:55:43;9.35;;;4.68;;
23390;SDS011;11868;45.606;5.302;2023-02-01T15:01:22;15.63;;;4.30;;
23390;SDS011;11868;45.606;5.302;2023-02-01T15:06:42;7.75;;;3.90;;
23390;SDS011;11868;45.606;5.302;2023-02-01T15:09:10;10.70;;;3.50;;
23390;SDS011;11868;45.606;5.302;2023-02-01T15:14:26;11.85;;;4.13;;
23390;SDS011;11868;45.606;5.302;2023-02-01T15:16:52;6.05;;;2.72;;
23390;SDS011;11868;45.606;5.302;2023-02-01T15:19:21;5.95;;;2.83;;
23390;SDS011;11868;45.606;5.302;2023-02-01T15:21:49;5.40;;;2.50;;
23390;SDS011;11868;45.606;5.302;2023-02-01T15:24:21;6.65;;;2.65;;
23390;SDS011;11868;45.606;5.302;2023-02-01T15:26:48;9.88;;;2.90;;
23390;SDS011;11868;45.606;5.302;2023-02-01T15:29:14;8.75;;;3.58;;
23390;SDS011;11868;45.606;5.302;2023-02-01T15:31:41;12.20;;;4.80;;
23390;SDS011;11868;45.606;5.302;2023-02-01T15:34:09;8.20;;;3.45;;
23390;SDS011;11868;45.606;5.302;2023-02-01T15:36:35;6.05;;;3.53;;
23390;SDS011;11868;45.606;5.302;2023-02-01T15:39:22;13.32;;;3.50;;
23390;SDS011;11868;45.606;5.302;2023-02-01T15:41:52;7.57;;;3.40;;
23390;SDS011;11868;45.606;5.302;2023-02-01T15:44:37;10.55;;;3.55;;
23390;SDS011;11868;45.606;5.302;2023-02-01T15:47:26;9.45;;;3.40;;
23390;SDS011;11868;45.606;5.302;2023-02-01T15:49:52;6.40;;;3.55;;
23390;SDS011;11868;45.606;5.302;2023-02-01T15:55:00;7.70;;;3.60;;
23390;SDS011;11868;45.606;5.302;2023-02-01T15:57:27;7.97;;;3.67;;
23390;SDS011;11868;45.606;5.302;2023-02-01T16:00:00;9.20;;;4.03;;
23390;SDS011;11868;45.606;5.302;2023-02-01T16:08:03;7.38;;;4.18;;
23390;SDS011;11868;45.606;5.302;2023-02-01T16:10:29;10.40;;;4.13;;
23390;SDS011;11868;45.606;5.302;2023-02-01T16:12:56;6.57;;;3.75;;
23390;SDS011;11868;45.606;5.302;2023-02-01T16:15:25;11.05;;;4.50;;
23390;SDS011;11868;45.606;5.302;2023-02-01T16:17:51;8.27;;;4.47;;
23390;SDS011;11868;45.606;5.302;2023-02-01T16:20:17;7.53;;;3.83;;
23390;SDS011;11868;45.606;5.302;2023-02-01T16:22:42;8.68;;;4.38;;
23390;SDS011;11868;45.606;5.302;2023-02-01T16:25:08;12.60;;;4.60;;
23390;SDS011;11868;45.606;5.302;2023-02-01T16:27:33;10.95;;;4.80;;
23390;SDS011;11868;45.606;5.302;2023-02-01T16:29:58;9.68;;;4.07;;
23390;SDS011;11868;45.606;5.302;2023-02-01T16:32:24;9.43;;;4.53;;
23390;SDS011;11868;45.606;5.302;2023-02-01T16:34:51;6.97;;;4.10;;
23390;SDS011;11868;45.606;5.302;2023-02-01T16:37:24;10.65;;;4.40;;
23390;SDS011;11868;45.606;5.302;2023-02-01T16:39:49;10.35;;;5.05;;
23390;SDS011;11868;45.606;5.302;2023-02-01T16:42:15;7.38;;;4.57;;
23390;SDS011;11868;45.606;5.302;2023-02-01T16:44:41;14.77;;;5.00;;
23390;SDS011;11868;45.606;5.302;2023-02-01T16:49:45;8.73;;;4.93;;
23390;SDS011;11868;45.606;5.302;2023-02-01T16:52:15;9.38;;;5.28;;
23390;SDS011;11868;45.606;5.302;2023-02-01T16:54:43;12.63;;;5.15;;
23390;SDS011;11868;45.606;5.302;2023-02-01T16:57:12;10.85;;;4.97;;
23390;SDS011;11868;45.606;5.302;2023-02-01T16:59:39;9.82;;;4.93;;
23390;SDS011;11868;45.606;5.302;2023-02-01T17:02:04;12.95;;;5.35;;
23390;SDS011;11868;45.606;5.302;2023-02-01T17:04:30;15.75;;;5.00;;
23390;SDS011;11868;45.606;5.302;2023-02-01T17:06:55;9.88;;;5.68;;
23390;SDS011;11868;45.606;5.302;2023-02-01T17:09:20;10.98;;;4.78;;
23390;SDS011;11868;45.606;5.302;2023-02-01T17:11:46;11.77;;;5.28;;
23390;SDS011;11868;45.606;5.302;2023-02-01T17:14:15;10.95;;;6.13;;
23390;SDS011;11868;45.606;5.302;2023-02-01T17:16:42;13.70;;;5.03;;
23390;SDS011;11868;45.606;5.302;2023-02-01T17:19:10;13.10;;;5.35;;
23390;SDS011;11868;45.606;5.302;2023-02-01T17:21:57;9.93;;;4.72;;
23390;SDS011;11868;45.606;5.302;2023-02-01T17:24:25;9.25;;;5.63;;
23390;SDS011;11868;45.606;5.302;2023-02-01T17:26:52;14.52;;;4.78;;
23390;SDS011;11868;45.606;5.302;2023-02-01T17:29:17;13.52;;;5.22;;
23390;SDS011;11868;45.606;5.302;2023-02-01T17:31:45;11.05;;;4.60;;
23390;SDS011;11868;45.606;5.302;2023-02-01T17:34:12;11.25;;;5.50;;
23390;SDS011;11868;45.606;5.302;2023-02-01T17:36:43;16.15;;;5.07;;
23390;SDS011;11868;45.606;5.302;2023-02-01T17:39:09;9.40;;;5.22;;